createdAt,value
2023-03-24T00:01:46.673Z,39.40
2023-03-24T00:05:01.653Z,39.30
2023-03-24T00:08:12.657Z,39.40
2023-03-24T00:11:23.610Z,39.20
2023-03-24T00:14:34.783Z,38.80
2023-03-24T00:17:44.753Z,38.60
2023-03-24T00:20:59.099Z,38.60
2023-03-24T00:24:14.615Z,38.70
2023-03-24T00:27:25.632Z,38.80
2023-03-24T00:30:38.598Z,38.90
2023-03-24T00:33:52.795Z,38.90
2023-03-24T00:37:04.748Z,38.80
2023-03-24T00:40:19.714Z,38.90
2023-03-24T00:43:30.117Z,39.00
2023-03-24T00:46:40.358Z,39.00
2023-03-24T00:49:56.701Z,39.00
2023-03-24T00:53:07.657Z,39.00
2023-03-24T00:56:20.584Z,39.10
2023-03-24T00:59:30.267Z,39.40
2023-03-24T01:02:41.522Z,39.80
2023-03-24T01:05:53.601Z,39.70
2023-03-24T01:09:04.103Z,39.60
2023-03-24T01:12:12.685Z,39.70
2023-03-24T01:15:22.729Z,39.90
2023-03-24T01:18:31.182Z,39.70
2023-03-24T01:21:40.816Z,39.60
2023-03-24T01:24:50.855Z,39.60
2023-03-24T01:28:04.021Z,39.70
2023-03-24T01:31:16.499Z,39.70
2023-03-24T01:34:27.724Z,39.50
2023-03-24T01:37:40.823Z,39.30
2023-03-24T01:40:55.901Z,39.40
2023-03-24T01:44:06.548Z,39.50
2023-03-24T01:47:17.533Z,39.50
2023-03-24T01:50:29.077Z,39.30
2023-03-24T01:53:41.389Z,39.80
2023-03-24T01:56:51.993Z,39.40
2023-03-24T02:00:06.900Z,39.50
2023-03-24T02:03:20.140Z,39.40
2023-03-24T02:06:28.875Z,39.20
2023-03-24T02:09:40.261Z,39.30
2023-03-24T02:12:53.200Z,39.40
2023-03-24T02:16:37.146Z,39.70
2023-03-24T02:20:03.120Z,39.70
2023-03-24T02:24:00.310Z,39.60
2023-03-24T02:27:15.919Z,39.90
2023-03-24T02:31:07.245Z,39.90
2023-03-24T02:34:56.903Z,39.90
2023-03-24T02:42:05.828Z,40.50
2023-03-24T02:45:21.291Z,40.60
2023-03-24T02:48:35.382Z,40.40
2023-03-24T02:51:47.177Z,40.00
2023-03-24T02:54:57.338Z,40.40
2023-03-24T02:58:09.732Z,40.50
2023-03-24T03:01:20.508Z,40.50
2023-03-24T03:04:34.584Z,40.20
2023-03-24T03:07:47.391Z,40.20
2023-03-24T03:10:59.228Z,40.50
2023-03-24T03:14:10.211Z,40.40
2023-03-24T03:17:20.645Z,40.60
2023-03-24T03:20:31.901Z,40.20
2023-03-24T03:23:41.806Z,40.20
2023-03-24T03:26:52.803Z,40.40
2023-03-24T03:30:03.907Z,40.40
2023-03-24T03:33:15.811Z,40.30
2023-03-24T03:36:28.289Z,40.00
2023-03-24T03:39:42.917Z,39.90
2023-03-24T03:42:52.053Z,40.10
2023-03-24T03:46:02.739Z,40.00
2023-03-24T03:49:14.691Z,39.90
2023-03-24T03:52:25.714Z,39.90
2023-03-24T03:55:36.442Z,39.80
2023-03-24T03:58:49.678Z,39.90
2023-03-24T04:02:02.833Z,39.80
2023-03-24T04:05:16.950Z,39.70
2023-03-24T04:08:33.308Z,39.60
2023-03-24T04:11:56.702Z,39.70
2023-03-24T04:15:18.160Z,39.70
2023-03-24T04:18:34.706Z,39.50
2023-03-24T04:21:57.396Z,39.50
2023-03-24T04:25:11.200Z,39.40
2023-03-24T04:28:22.000Z,39.40
2023-03-24T04:31:32.471Z,39.30
2023-03-24T04:34:45.065Z,39.30
2023-03-24T04:37:55.248Z,39.10
2023-03-24T04:41:04.386Z,39.20
2023-03-24T04:44:18.675Z,39.20
2023-03-24T04:47:32.085Z,39.10
2023-03-24T04:50:40.966Z,39.10
2023-03-24T04:53:53.589Z,39.00
2023-03-24T04:57:02.264Z,38.90
2023-03-24T05:00:17.075Z,38.90
2023-03-24T05:03:27.372Z,38.90
2023-03-24T05:06:37.588Z,38.90
2023-03-24T05:09:49.727Z,38.90
2023-03-24T05:13:02.283Z,38.90
2023-03-24T05:16:14.069Z,38.80
2023-03-24T05:19:25.471Z,38.70
2023-03-24T05:22:36.079Z,38.70
2023-03-24T05:25:48.092Z,38.70
2023-03-24T05:28:58.871Z,38.60
2023-03-24T05:32:10.362Z,38.60
2023-03-24T05:35:19.659Z,38.70
2023-03-24T05:38:32.241Z,38.50
2023-03-24T05:41:42.126Z,38.60
2023-03-24T05:44:54.856Z,38.60
2023-03-24T05:48:05.891Z,38.50
2023-03-24T05:51:15.225Z,38.50
2023-03-24T05:54:28.567Z,38.50
2023-03-24T05:57:39.102Z,38.50
2023-03-24T06:00:48.849Z,38.40
2023-03-24T06:04:00.553Z,38.30
2023-03-24T06:07:10.783Z,38.40
2023-03-24T06:10:24.344Z,38.40
2023-03-24T06:13:35.259Z,38.40
2023-03-24T06:16:48.008Z,38.30
2023-03-24T06:20:00.245Z,38.20
2023-03-24T06:23:09.963Z,38.20
2023-03-24T06:26:21.313Z,38.20
2023-03-24T06:29:34.515Z,38.30
2023-03-24T06:32:48.927Z,38.30
2023-03-24T06:36:01.054Z,38.30
2023-03-24T06:39:12.866Z,37.90
2023-03-24T06:42:24.773Z,37.70
2023-03-24T06:45:35.217Z,37.70
2023-03-24T06:48:44.968Z,37.80
2023-03-24T06:51:54.907Z,37.90
2023-03-24T06:55:02.333Z,37.90
2023-03-24T06:58:16.670Z,37.80
2023-03-24T07:01:28.884Z,37.80
2023-03-24T07:04:40.841Z,38.00
2023-03-24T07:11:05.782Z,38.00
2023-03-24T07:14:16.896Z,37.90
2023-03-24T07:17:28.828Z,37.70
2023-03-24T07:20:39.772Z,37.70
2023-03-24T07:23:52.346Z,37.80
2023-03-24T07:27:05.476Z,37.80
2023-03-24T07:30:24.252Z,37.80
2023-03-24T07:33:34.341Z,37.80
2023-03-24T07:36:44.385Z,38.00
2023-03-24T07:39:55.383Z,38.10
2023-03-24T07:43:11.131Z,38.10
2023-03-24T07:46:19.862Z,38.20
2023-03-24T07:49:29.982Z,37.80
2023-03-24T07:52:42.473Z,37.80
2023-03-24T07:55:53.235Z,37.80
2023-03-24T07:59:05.313Z,37.90
2023-03-24T08:02:18.121Z,37.90
2023-03-24T08:05:28.381Z,37.90
2023-03-24T08:08:37.655Z,37.90
2023-03-24T08:11:47.442Z,38.00
2023-03-24T08:14:59.106Z,38.20
2023-03-24T08:18:12.157Z,38.10
2023-03-24T08:21:24.296Z,38.00
2023-03-24T08:24:38.092Z,37.80
2023-03-24T08:27:47.471Z,37.90
2023-03-24T08:30:54.872Z,37.90
2023-03-24T08:34:05.927Z,38.00
2023-03-24T08:37:19.566Z,38.00
2023-03-24T08:40:30.322Z,38.00
2023-03-24T08:43:41.149Z,38.00
2023-03-24T08:46:53.607Z,37.90
2023-03-24T08:50:05.253Z,38.00
2023-03-24T08:53:16.606Z,38.20
2023-03-24T08:56:28.078Z,38.20
2023-03-24T08:59:37.243Z,38.80
2023-03-24T09:02:50.001Z,37.90
2023-03-24T09:06:01.828Z,37.90
2023-03-24T09:09:09.392Z,38.00
2023-03-24T09:12:20.183Z,38.00
2023-03-24T09:15:32.047Z,38.00
2023-03-24T09:18:42.982Z,38.00
2023-03-24T09:21:53.364Z,38.00
2023-03-24T09:25:02.216Z,38.20
2023-03-24T09:28:17.436Z,38.20
2023-03-24T09:31:28.190Z,38.20
2023-03-24T09:34:37.195Z,38.00
2023-03-24T09:37:49.217Z,37.90
2023-03-24T09:41:03.642Z,37.90
2023-03-24T09:44:14.427Z,37.90
2023-03-24T09:47:29.712Z,38.00
2023-03-24T09:50:41.400Z,38.00
2023-03-24T09:53:54.829Z,38.00
2023-03-24T09:57:04.756Z,38.10
2023-03-24T10:00:34.802Z,38.10
2023-03-24T10:03:45.072Z,38.20
2023-03-24T10:06:58.839Z,38.10
2023-03-24T10:10:09.740Z,37.80
2023-03-24T10:13:23.190Z,37.90
2023-03-24T10:16:34.522Z,38.00
2023-03-24T10:19:47.640Z,38.00
2023-03-24T10:23:01.894Z,38.00
2023-03-24T10:26:20.193Z,38.00
2023-03-24T10:29:30.669Z,38.30
2023-03-24T10:32:43.180Z,38.30
2023-03-24T10:35:55.849Z,38.20
2023-03-24T10:42:23.362Z,37.80
2023-03-24T10:45:34.660Z,38.00
2023-03-24T10:48:48.736Z,38.00
2023-03-24T10:52:02.289Z,38.00
2023-03-24T10:55:18.922Z,38.00
2023-03-24T10:58:33.509Z,38.20
2023-03-24T11:01:42.772Z,38.40
2023-03-24T11:04:55.792Z,38.20
2023-03-24T11:08:19.024Z,38.20
2023-03-24T11:11:38.012Z,38.00
2023-03-24T11:14:50.759Z,38.00
2023-03-24T11:18:00.251Z,38.00
2023-03-24T11:21:12.819Z,38.10
2023-03-24T11:24:24.208Z,38.30
2023-03-24T11:27:34.794Z,38.30
2023-03-24T11:30:51.878Z,38.20
2023-03-24T11:34:03.352Z,38.30
2023-03-24T11:37:13.456Z,38.40
2023-03-24T11:40:29.974Z,38.40
2023-03-24T11:43:41.762Z,38.40
2023-03-24T11:46:54.146Z,38.40
2023-03-24T11:50:08.748Z,38.40
2023-03-24T11:53:22.273Z,38.40
2023-03-24T11:56:34.692Z,38.40
2023-03-24T11:59:47.177Z,38.40
2023-03-24T12:03:10.482Z,39.10
2023-03-24T12:06:31.105Z,38.60
2023-03-24T12:09:41.098Z,38.60
2023-03-24T12:12:55.189Z,38.20
2023-03-24T12:16:10.075Z,38.20
2023-03-24T12:19:53.254Z,38.00
2023-03-24T12:23:04.577Z,38.20
2023-03-24T12:26:19.899Z,39.00
2023-03-24T12:29:43.373Z,39.50
2023-03-24T12:32:53.568Z,39.60
2023-03-24T12:36:11.767Z,39.40
2023-03-24T12:39:26.528Z,38.80
2023-03-24T12:42:39.329Z,38.70
2023-03-24T12:45:55.729Z,38.70
2023-03-24T12:49:21.678Z,39.00
2023-03-24T12:53:05.105Z,39.30
2023-03-24T12:56:11.140Z,39.40
2023-03-24T12:59:24.010Z,39.60
2023-03-24T13:02:36.223Z,39.60
2023-03-24T13:05:47.775Z,39.40
2023-03-24T13:09:10.370Z,39.30
2023-03-24T13:12:23.899Z,39.10
2023-03-24T13:15:37.783Z,38.60
2023-03-24T13:18:48.947Z,38.40
2023-03-24T13:22:00.537Z,38.30
2023-03-24T13:25:11.872Z,38.20
2023-03-24T13:28:21.805Z,38.20
2023-03-24T13:31:33.112Z,38.30
2023-03-24T13:34:46.303Z,38.80
2023-03-24T13:38:00.689Z,38.90
2023-03-24T13:41:09.065Z,38.60
2023-03-24T13:44:23.785Z,38.60
2023-03-24T13:47:34.204Z,38.60
2023-03-24T13:50:46.953Z,38.10
2023-03-24T13:53:58.711Z,38.00
2023-03-24T13:57:11.114Z,38.10
2023-03-24T14:00:25.980Z,38.10
2023-03-24T14:03:40.008Z,38.20
2023-03-24T14:06:56.934Z,38.20
2023-03-24T14:10:06.484Z,38.30
2023-03-24T14:13:40.458Z,38.50
2023-03-24T14:16:56.163Z,38.50
2023-03-24T14:20:36.558Z,38.20
2023-03-24T14:23:51.139Z,37.90
2023-03-24T14:26:59.427Z,37.60
2023-03-24T14:30:15.793Z,37.30
2023-03-24T14:33:30.886Z,37.00
2023-03-24T14:36:42.719Z,37.00
2023-03-24T14:39:54.265Z,36.90
2023-03-24T14:43:25.050Z,36.80
2023-03-24T14:46:42.189Z,37.00
2023-03-24T14:49:52.944Z,37.20
2023-03-24T14:53:07.732Z,37.10
2023-03-24T14:56:17.052Z,37.00
2023-03-24T14:59:36.815Z,36.90
2023-03-24T15:02:48.501Z,36.90
2023-03-24T15:05:57.796Z,36.70
2023-03-24T15:09:11.266Z,36.70
2023-03-24T15:12:23.560Z,36.70
2023-03-24T15:15:36.801Z,36.60
2023-03-24T15:19:01.525Z,36.90
2023-03-24T15:22:07.582Z,36.80
2023-03-24T15:25:21.109Z,36.80
2023-03-24T15:28:31.089Z,36.70
2023-03-24T15:31:41.136Z,36.50
2023-03-24T15:34:55.856Z,36.40
2023-03-24T15:38:10.179Z,36.30
2023-03-24T15:41:23.298Z,36.10
2023-03-24T15:44:34.986Z,36.30
2023-03-24T15:47:47.508Z,36.20
2023-03-24T15:51:03.711Z,36.20
2023-03-24T15:54:27.365Z,36.30
2023-03-24T15:57:42.983Z,36.40
2023-03-24T16:00:58.520Z,36.30
2023-03-24T16:04:09.063Z,36.30
2023-03-24T16:07:28.876Z,36.40
2023-03-24T16:10:41.042Z,36.30
2023-03-24T16:13:52.222Z,36.10
2023-03-24T16:17:01.149Z,36.40
2023-03-24T16:20:18.149Z,36.10
2023-03-24T16:23:27.933Z,36.30
2023-03-24T16:26:39.835Z,35.90
2023-03-24T16:29:51.266Z,36.20
2023-03-24T16:33:03.663Z,37.20
2023-03-24T16:36:19.896Z,36.50
2023-03-24T16:39:32.730Z,36.50
2023-03-24T16:42:44.761Z,36.60
2023-03-24T16:45:55.118Z,36.90
2023-03-24T16:49:06.356Z,37.40
2023-03-24T16:52:20.733Z,36.90
2023-03-24T16:55:32.230Z,36.90
2023-03-24T16:58:42.113Z,36.80
2023-03-24T17:01:54.857Z,37.20
2023-03-24T17:05:05.384Z,37.00
2023-03-24T17:08:16.128Z,36.90
2023-03-24T17:11:29.109Z,36.80
2023-03-24T17:14:40.790Z,37.00
2023-03-24T17:17:52.486Z,37.00
2023-03-24T17:21:03.634Z,36.90
2023-03-24T17:24:14.855Z,36.80
2023-03-24T17:27:26.741Z,37.20
2023-03-24T17:30:38.787Z,37.00
2023-03-24T17:33:48.852Z,36.90
2023-03-24T17:37:00.672Z,36.90
2023-03-24T17:40:13.958Z,37.40
2023-03-24T17:43:20.186Z,37.10
2023-03-24T17:46:33.816Z,37.10
2023-03-24T17:49:46.531Z,36.80
2023-03-24T17:52:56.842Z,36.60
2023-03-24T17:56:09.569Z,36.40
2023-03-24T17:59:22.831Z,36.30
2023-03-24T18:02:36.052Z,36.30
2023-03-24T18:05:48.850Z,36.40
2023-03-24T18:09:01.033Z,36.40
2023-03-24T18:12:12.987Z,36.80
2023-03-24T18:15:28.171Z,36.50
2023-03-24T18:18:38.554Z,36.50
2023-03-24T18:21:50.392Z,36.60
2023-03-24T18:25:05.353Z,36.60
2023-03-24T18:28:18.068Z,36.60
2023-03-24T18:31:27.802Z,36.60
2023-03-24T18:34:39.382Z,36.50
2023-03-24T18:37:50.689Z,36.50
2023-03-24T18:41:08.039Z,36.50
2023-03-24T18:44:20.335Z,36.60
2023-03-24T18:47:29.701Z,36.70
2023-03-24T18:50:46.594Z,36.40
2023-03-24T18:53:54.093Z,36.30
2023-03-24T18:57:06.260Z,36.60
2023-03-24T19:00:21.029Z,36.40
2023-03-24T19:03:34.130Z,36.40
2023-03-24T19:06:46.658Z,35.60
2023-03-24T19:09:57.846Z,35.90
2023-03-24T19:13:10.564Z,35.90
2023-03-24T19:16:22.483Z,35.90
2023-03-24T19:19:34.073Z,35.10
2023-03-24T19:22:42.345Z,34.80
2023-03-24T19:25:57.516Z,34.80
2023-03-24T19:29:08.374Z,35.00
2023-03-24T19:32:19.835Z,35.60
2023-03-24T19:35:29.221Z,34.70
2023-03-24T19:38:41.089Z,34.30
2023-03-24T19:41:53.512Z,34.00
2023-03-24T19:45:04.501Z,35.30
2023-03-24T19:48:13.597Z,34.00
2023-03-24T19:51:24.197Z,33.10
2023-03-24T19:54:40.116Z,33.50
2023-03-24T19:57:48.171Z,33.80
2023-03-24T20:01:00.146Z,33.70
2023-03-24T20:04:11.142Z,33.80
2023-03-24T20:07:23.706Z,34.20
2023-03-24T20:10:37.652Z,34.10
2023-03-24T20:13:49.565Z,33.40
2023-03-24T20:17:01.930Z,33.10
2023-03-24T20:20:11.740Z,32.60
2023-03-24T20:23:20.527Z,32.70
2023-03-24T20:26:29.998Z,33.10
2023-03-24T20:29:41.707Z,33.50
2023-03-24T20:32:50.547Z,33.50
2023-03-24T20:35:59.704Z,32.80
2023-03-24T20:39:13.341Z,32.70
2023-03-24T20:42:23.266Z,32.90
2023-03-24T20:45:34.323Z,33.30
2023-03-24T20:48:45.278Z,33.20
2023-03-24T20:51:57.241Z,32.90
2023-03-24T20:55:07.829Z,33.00
2023-03-24T20:58:17.621Z,33.20
2023-03-24T21:01:26.919Z,33.40
2023-03-24T21:04:36.514Z,33.60
2023-03-24T21:07:47.145Z,33.80
2023-03-24T21:11:02.178Z,34.00
2023-03-24T21:14:11.049Z,33.90
2023-03-24T21:17:25.193Z,34.10
2023-03-24T21:20:39.690Z,34.50
2023-03-24T21:23:52.637Z,34.60
2023-03-24T21:27:04.022Z,34.70
2023-03-24T21:30:19.659Z,34.70
2023-03-24T21:33:29.795Z,34.50
2023-03-24T21:36:42.222Z,34.40
2023-03-24T21:39:53.792Z,34.50
2023-03-24T21:43:06.688Z,34.70
2023-03-24T21:46:19.172Z,34.90
2023-03-24T21:49:33.312Z,35.10
2023-03-24T21:52:44.785Z,35.20
2023-03-24T21:56:02.306Z,35.30
2023-03-24T21:59:13.649Z,35.50
2023-03-24T22:02:25.266Z,35.50
2023-03-24T22:05:35.590Z,35.50
2023-03-24T22:08:48.337Z,35.60
2023-03-24T22:11:59.818Z,35.60
2023-03-24T22:15:16.031Z,35.60
2023-03-24T22:18:28.023Z,35.70
2023-03-24T22:21:37.885Z,35.70
2023-03-24T22:24:49.408Z,35.70
2023-03-24T22:27:58.316Z,35.90
2023-03-24T22:31:08.732Z,35.80
2023-03-24T22:34:18.695Z,35.80
2023-03-24T22:37:30.759Z,35.50
2023-03-24T22:40:40.126Z,35.20
2023-03-24T22:43:54.134Z,35.20
2023-03-24T22:47:04.130Z,35.30
2023-03-24T22:50:17.757Z,35.50
2023-03-24T22:53:29.845Z,35.60
2023-03-24T22:56:40.335Z,35.60
2023-03-24T22:59:51.891Z,35.60
2023-03-24T23:03:03.771Z,35.90
2023-03-24T23:06:16.977Z,36.10
2023-03-24T23:09:24.840Z,35.80
2023-03-24T23:12:38.063Z,35.80
2023-03-24T23:15:44.337Z,35.30
2023-03-24T23:18:58.724Z,35.30
2023-03-24T23:22:09.917Z,35.30
2023-03-24T23:25:20.992Z,35.50
2023-03-24T23:28:32.592Z,35.50
2023-03-24T23:31:44.179Z,35.70
2023-03-24T23:34:54.451Z,36.10
2023-03-24T23:38:05.401Z,36.10
2023-03-24T23:41:14.015Z,36.00
2023-03-24T23:44:24.403Z,35.90
2023-03-24T23:47:35.227Z,35.80
2023-03-24T23:50:45.655Z,35.50
2023-03-24T23:53:58.311Z,35.30
2023-03-24T23:57:11.439Z,35.30
